Time;durP1;ratioP1;P1;durP2;ratioP2;P2;SDS_P1;SDS_P2;PMS_P1;PMS_P2;Temp;Humidity;BMP_temperature;BMP_pressure;BME280_temperature;BME280_humidity;BME280_pressure;Samples;Min_cycle;Max_cycle;Signal;HPM_P1;HPM_P2
2021/09/04 00:00:35;;;;;;;;;;;;;;;20.03;100.00;99298.84;5087665;28;19927;-62
2021/09/04 00:03:01;;;;;;;;;;;;;;;20.00;100.00;99298.19;5092294;28;19919;-62
2021/09/04 00:05:26;;;;;;;;;;;;;;;20.05;100.00;99296.97;5071185;28;20346;-63
2021/09/04 00:07:52;;;;;;;;;;;;;;;19.74;100.00;99303.34;5090197;28;20234;-62
2021/09/04 00:10:17;;;;;;;;;;;;;;;19.72;100.00;99300.00;5089640;28;20054;-62
2021/09/04 00:12:42;;;;;;;;;;;;;;;19.38;100.00;99298.69;5087334;28;19916;-62
2021/09/04 00:15:08;;;;;;;;;;;;;;;19.49;100.00;99285.78;5089874;28;19915;-62
2021/09/04 00:17:33;;;;;;;;;;;;;;;19.25;100.00;99289.94;5090172;28;20351;-62
2021/09/04 00:19:59;;;;;;;;;;;;;;;19.37;100.00;99282.19;5092619;28;20101;-62
2021/09/04 00:22:24;;;;;;;;;;;;;;;18.85;100.00;99287.22;5073328;28;19943;-62
2021/09/04 00:24:49;;;;;;;;;;;;;;;19.20;100.00;99278.03;5090785;28;19969;-62
2021/09/04 00:27:14;;;;;;;;;;;;;;;19.46;100.00;99282.53;5089754;28;19920;-62
2021/09/04 00:29:40;;;;;;;;;;;;;;;19.14;100.00;99278.41;5088555;28;19920;-62
2021/09/04 00:32:05;;;;;;;;;;;;;;;19.30;100.00;99273.06;5064020;28;19972;-62
2021/09/04 00:34:30;;;;;;;;;;;;;;;19.00;100.00;99271.47;5087214;28;19920;-62
2021/09/04 00:36:56;;;;;;;;;;;;;;;18.93;100.00;99278.00;5090358;28;19920;-62
2021/09/04 00:39:21;;;;;;;;;;;;;;;18.99;100.00;99281.97;5088215;28;19969;-62
2021/09/04 00:41:46;;;;;;;;;;;;;;;19.32;100.00;99276.41;5087256;28;19920;-62
2021/09/04 00:44:16;;;;;;;;;;;;;;;19.14;100.00;99273.19;5088519;28;19912;-62
2021/09/04 00:46:41;;;;;;;;;;;;;;;19.32;100.00;99270.38;5087670;28;20605;-62
2021/09/04 00:49:07;;;;;;;;;;;;;;;19.31;100.00;99277.34;5095355;28;19965;-61
2021/09/04 00:51:32;;;;;;;;;;;;;;;19.10;100.00;99268.28;5103049;28;19912;-61
2021/09/04 00:53:57;;;;;;;;;;;;;;;19.14;100.00;99257.53;5099649;28;19916;-59
2021/09/04 00:56:23;;;;;;;;;;;;;;;19.17;100.00;99261.72;5102301;28;20444;-61
2021/09/04 00:58:48;;;;;;;;;;;;;;;18.83;100.00;99263.00;5082731;28;19968;-61
2021/09/04 01:01:14;;;;;;;;;;;;;;;18.40;100.00;99255.97;5100580;28;20495;-61
2021/09/04 01:03:39;;;;;;;;;;;;;;;18.85;100.00;99253.31;5080572;28;19920;-61
2021/09/04 01:06:04;;;;;;;;;;;;;;;19.10;100.00;99256.03;5097655;28;20631;-60
2021/09/04 01:08:29;;;;;;;;;;;;;;;18.97;100.00;99257.75;5079074;28;20395;-61
2021/09/04 01:10:55;;;;;;;;;;;;;;;18.41;100.00;99254.22;5082303;28;19911;-62
2021/09/04 01:13:20;;;;;;;;;;;;;;;18.22;100.00;99255.31;5097969;28;19920;-62
2021/09/04 01:15:46;;;;;;;;;;;;;;;18.34;100.00;99257.19;5099007;28;19923;-60
2021/09/04 01:18:11;;;;;;;;;;;;;;;18.75;100.00;99256.44;5097619;28;19916;-62
2021/09/04 01:20:36;;;;;;;;;;;;;;;18.52;100.00;99257.00;5097471;28;19916;-60
2021/09/04 01:23:02;;;;;;;;;;;;;;;18.24;100.00;99256.06;5096808;28;19916;-61
2021/09/04 01:25:29;;;;;;;;;;;;;;;18.32;100.00;99255.63;5096418;28;19926;-60
2021/09/04 01:27:55;;;;;;;;;;;;;;;18.59;100.00;99258.31;5097584;28;20454;-62
2021/09/04 01:30:20;;;;;;;;;;;;;;;18.58;100.00;99261.84;5097829;28;19983;-62
2021/09/04 01:32:46;;;;;;;;;;;;;;;18.19;100.00;99258.94;5079640;28;19912;-60
2021/09/04 01:35:12;;;;;;;;;;;;;;;18.53;100.00;99256.09;5098523;28;19919;-61
2021/09/04 01:37:37;;;;;;;;;;;;;;;18.69;100.00;99262.03;5097330;28;19949;-61
2021/09/04 01:40:12;;;;;;;;;;;;;;;18.55;100.00;99257.66;5098312;28;19919;-62
2021/09/04 01:42:38;;;;;;;;;;;;;;;18.32;100.00;99256.44;5095798;28;19920;-61
2021/09/04 01:45:04;;;;;;;;;;;;;;;17.46;100.00;99257.94;5098982;28;19923;-61
2021/09/04 01:47:29;;;;;;;;;;;;;;;17.94;100.00;99253.50;5096518;28;19920;-61
2021/09/04 01:49:54;;;;;;;;;;;;;;;17.61;100.00;99251.00;5099539;28;19912;-61
2021/09/04 01:52:20;;;;;;;;;;;;;;;17.82;100.00;99249.00;5097336;28;20383;-61
2021/09/04 01:54:46;;;;;;;;;;;;;;;17.63;100.00;99247.44;5099954;28;19968;-61
2021/09/04 01:57:11;;;;;;;;;;;;;;;17.90;100.00;99245.03;5097533;28;20417;-62
2021/09/04 01:59:38;;;;;;;;;;;;;;;18.17;100.00;99245.16;5079885;28;20342;-60
2021/09/04 02:02:03;;;;;;;;;;;;;;;17.83;100.00;99235.88;5097926;28;19924;-59
2021/09/04 02:04:29;;;;;;;;;;;;;;;18.10;100.00;99238.63;5098810;28;20454;-61
2021/09/04 02:06:54;;;;;;;;;;;;;;;17.32;100.00;99245.72;5097060;28;19962;-61
2021/09/04 02:09:19;;;;;;;;;;;;;;;17.68;100.00;99241.94;5098617;28;20335;-62
2021/09/04 02:11:44;;;;;;;;;;;;;;;17.83;100.00;99246.28;5099071;28;19964;-59
2021/09/04 02:14:11;;;;;;;;;;;;;;;17.90;100.00;99237.22;5100811;28;19916;-59
2021/09/04 02:16:36;;;;;;;;;;;;;;;17.52;100.00;99242.81;5098533;28;20003;-59
2021/09/04 02:19:02;;;;;;;;;;;;;;;18.19;100.00;99239.84;5098517;28;20010;-60
2021/09/04 02:21:27;;;;;;;;;;;;;;;18.27;100.00;99242.00;5098413;28;20280;-59
2021/09/04 02:23:52;;;;;;;;;;;;;;;17.59;100.00;99245.09;5097906;28;19963;-61
2021/09/04 02:26:18;;;;;;;;;;;;;;;17.20;100.00;99246.41;5098219;28;19946;-61
2021/09/04 02:28:43;;;;;;;;;;;;;;;16.88;100.00;99246.41;5095273;28;19943;-61
2021/09/04 02:31:08;;;;;;;;;;;;;;;17.08;100.00;99248.75;5097787;28;20011;-60
2021/09/04 02:33:34;;;;;;;;;;;;;;;17.66;100.00;99239.44;5100712;28;19953;-61
2021/09/04 02:35:59;;;;;;;;;;;;;;;17.30;100.00;99250.16;5098169;28;21069;-62
2021/09/04 02:38:24;;;;;;;;;;;;;;;17.16;100.00;99245.72;5097528;28;19923;-60
2021/09/04 02:40:50;;;;;;;;;;;;;;;16.41;100.00;99252.31;5096541;28;20717;-61
2021/09/04 02:43:15;;;;;;;;;;;;;;;16.96;100.00;99244.19;5097137;28;19911;-61
2021/09/04 02:45:41;;;;;;;;;;;;;;;16.99;100.00;99240.59;5100400;28;19923;-62
2021/09/04 02:48:06;;;;;;;;;;;;;;;16.60;100.00;99242.59;5095984;28;20316;-61
2021/09/04 02:50:31;;;;;;;;;;;;;;;16.77;100.00;99239.13;5080626;28;19959;-62
2021/09/04 02:52:57;;;;;;;;;;;;;;;16.49;100.00;99247.56;5096900;28;19916;-61
2021/09/04 02:55:22;;;;;;;;;;;;;;;17.36;100.00;99231.59;5097697;28;20533;-61
2021/09/04 02:57:47;;;;;;;;;;;;;;;16.89;100.00;99240.25;5099610;28;20341;-60
2021/09/04 03:00:13;;;;;;;;;;;;;;;16.94;100.00;99233.03;5101767;28;19931;-61
2021/09/04 03:02:38;;;;;;;;;;;;;;;16.97;100.00;99230.28;5085253;28;19935;-62
2021/09/04 03:05:04;;;;;;;;;;;;;;;16.65;100.00;99234.56;5078174;28;20027;-61
2021/09/04 03:07:29;;;;;;;;;;;;;;;16.85;100.00;99246.53;5080527;28;19924;-60
2021/09/04 03:09:55;;;;;;;;;;;;;;;17.32;100.00;99240.50;5081195;28;19920;-62
2021/09/04 03:12:20;;;;;;;;;;;;;;;17.11;100.00;99251.16;5081029;28;20436;-61
2021/09/04 03:14:46;;;;;;;;;;;;;;;16.73;100.00;99248.00;5075595;28;19920;-61
2021/09/04 03:17:11;;;;;;;;;;;;;;;16.18;100.00;99251.72;5077627;28;19920;-62
2021/09/04 03:19:36;;;;;;;;;;;;;;;15.80;100.00;99257.06;5076170;28;20727;-61
2021/09/04 03:22:02;;;;;;;;;;;;;;;15.89;100.00;99256.63;5075589;28;19952;-62
2021/09/04 03:24:27;;;;;;;;;;;;;;;16.40;100.00;99250.59;5081811;28;19913;-61
2021/09/04 03:26:53;;;;;;;;;;;;;;;16.65;100.00;99243.22;5078357;28;19916;-61
2021/09/04 03:29:18;;;;;;;;;;;;;;;16.66;100.00;99250.09;5075525;28;19916;-61
2021/09/04 03:31:44;;;;;;;;;;;;;;;16.01;100.00;99246.53;5082089;28;19928;-60
2021/09/04 03:34:09;;;;;;;;;;;;;;;15.61;100.00;99240.69;5082699;28;19912;-61
2021/09/04 03:36:34;;;;;;;;;;;;;;;15.43;100.00;99245.84;5084428;28;19920;-60
2021/09/04 03:39:00;;;;;;;;;;;;;;;15.64;100.00;99243.13;5100030;28;19923;-62
2021/09/04 03:41:25;;;;;;;;;;;;;;;15.80;100.00;99245.84;5080452;28;19921;-60
2021/09/04 03:43:50;;;;;;;;;;;;;;;15.45;100.00;99254.41;5081383;28;19916;-61
2021/09/04 03:46:16;;;;;;;;;;;;;;;16.17;100.00;99251.78;5078123;28;19950;-60
2021/09/04 03:48:41;;;;;;;;;;;;;;;16.33;100.00;99249.25;5081411;28;19924;-61
2021/09/04 03:51:06;;;;;;;;;;;;;;;16.55;100.00;99248.97;5081788;28;20427;-61
2021/09/04 03:53:32;;;;;;;;;;;;;;;15.78;100.00;99245.94;5077639;28;19938;-60
2021/09/04 03:55:57;;;;;;;;;;;;;;;16.17;100.00;99250.06;5076369;28;19916;-60
2021/09/04 03:58:23;;;;;;;;;;;;;;;15.72;100.00;99245.41;5082490;28;20673;-61
2021/09/04 04:00:48;;;;;;;;;;;;;;;15.65;100.00;99248.25;5078120;28;19926;-61
2021/09/04 04:03:14;;;;;;;;;;;;;;;15.92;100.00;99244.41;5081981;28;19920;-61
2021/09/04 04:05:39;;;;;;;;;;;;;;;16.24;100.00;99237.59;5089244;28;19924;-62
2021/09/04 04:08:05;;;;;;;;;;;;;;;16.31;100.00;99242.38;5097992;28;19919;-61
2021/09/04 04:10:30;;;;;;;;;;;;;;;15.50;100.00;99237.78;5101927;28;19989;-61
2021/09/04 04:12:56;;;;;;;;;;;;;;;16.06;100.00;99252.38;5100617;28;19919;-61
2021/09/04 04:15:21;;;;;;;;;;;;;;;15.57;100.00;99244.34;5101306;28;20479;-60
2021/09/04 04:17:46;;;;;;;;;;;;;;;16.01;100.00;99250.00;5101410;28;19959;-61
2021/09/04 04:20:12;;;;;;;;;;;;;;;15.43;100.00;99252.81;5097613;28;20050;-61
2021/09/04 04:22:37;;;;;;;;;;;;;;;15.52;100.00;99251.53;5098540;28;20347;-61
2021/09/04 04:25:03;;;;;;;;;;;;;;;15.57;100.00;99244.34;5084094;28;19919;-59
2021/09/04 04:27:28;;;;;;;;;;;;;;;15.81;100.00;99248.38;5099471;28;19963;-61
2021/09/04 04:29:53;;;;;;;;;;;;;;;15.59;100.00;99248.56;5099231;28;20006;-60
2021/09/04 04:32:19;;;;;;;;;;;;;;;16.05;100.00;99255.84;5102044;28;19912;-62
2021/09/04 04:34:44;;;;;;;;;;;;;;;16.22;100.00;99255.84;5099326;28;19957;-62
2021/09/04 04:37:09;;;;;;;;;;;;;;;15.05;100.00;99258.91;5098166;28;19931;-59
2021/09/04 04:39:35;;;;;;;;;;;;;;;15.63;100.00;99259.66;5098605;28;19916;-60
2021/09/04 04:42:00;;;;;;;;;;;;;;;14.97;100.00;99263.59;5096475;28;20409;-61
2021/09/04 04:44:26;;;;;;;;;;;;;;;14.98;100.00;99261.81;5080899;28;20015;-61
2021/09/04 04:46:51;;;;;;;;;;;;;;;14.86;100.00;99258.06;5101908;28;20388;-62
2021/09/04 04:49:16;;;;;;;;;;;;;;;15.41;100.00;99262.41;5080372;28;19922;-62
2021/09/04 04:51:41;;;;;;;;;;;;;;;16.01;100.00;99259.53;5098756;28;19924;-62
2021/09/04 04:54:07;;;;;;;;;;;;;;;16.04;100.00;99262.00;5100125;28;19919;-61
2021/09/04 04:56:32;;;;;;;;;;;;;;;15.98;100.00;99264.88;5099653;28;20380;-59
2021/09/04 04:58:57;;;;;;;;;;;;;;;15.71;100.00;99267.91;5100125;28;20566;-61
2021/09/04 05:01:23;;;;;;;;;;;;;;;15.97;100.00;99263.22;5096947;28;20022;-61
2021/09/04 05:03:48;;;;;;;;;;;;;;;15.15;100.00;99271.44;5098099;28;19942;-61
2021/09/04 05:06:13;;;;;;;;;;;;;;;15.26;100.00;99277.81;5075134;28;19928;-61
2021/09/04 05:08:39;;;;;;;;;;;;;;;15.74;100.00;99277.34;5080136;28;20592;-60
2021/09/04 05:11:04;;;;;;;;;;;;;;;16.29;100.00;99280.59;5080225;28;19980;-61
2021/09/04 05:13:29;;;;;;;;;;;;;;;16.06;100.00;99278.34;5080820;28;20003;-62
2021/09/04 05:15:55;;;;;;;;;;;;;;;15.06;100.00;99286.50;5080471;28;19916;-62
2021/09/04 05:18:20;;;;;;;;;;;;;;;15.16;100.00;99283.50;5076860;28;19916;-60
2021/09/04 05:20:47;;;;;;;;;;;;;;;15.29;100.00;99283.78;5081463;28;19917;-61
2021/09/04 05:23:12;;;;;;;;;;;;;;;15.94;100.00;99289.31;5080008;28;19923;-61
2021/09/04 05:25:38;;;;;;;;;;;;;;;16.07;100.00;99287.81;5080604;28;20425;-59
2021/09/04 05:28:04;;;;;;;;;;;;;;;15.79;100.00;99291.75;5074982;28;19928;-59
2021/09/04 05:30:29;;;;;;;;;;;;;;;16.07;100.00;99290.41;5078049;28;19916;-61
2021/09/04 05:32:54;;;;;;;;;;;;;;;16.79;100.00;99291.94;5078704;28;19916;-61
2021/09/04 05:35:20;;;;;;;;;;;;;;;16.36;100.00;99288.09;5079405;28;20244;-61
2021/09/04 05:37:46;;;;;;;;;;;;;;;15.64;100.00;99288.09;5077486;28;19916;-61
2021/09/04 05:40:12;;;;;;;;;;;;;;;16.10;100.00;99295.44;5076044;28;19916;-60
2021/09/04 05:42:37;;;;;;;;;;;;;;;15.88;100.00;99306.91;5074903;28;20442;-60
2021/09/04 05:45:03;;;;;;;;;;;;;;;16.04;100.00;99295.75;5075940;28;19920;-61
2021/09/04 05:47:29;;;;;;;;;;;;;;;15.29;100.00;99302.78;5078556;28;19950;-61
2021/09/04 05:49:54;;;;;;;;;;;;;;;15.68;100.00;99299.19;5077493;28;19924;-61
2021/09/04 05:52:20;;;;;;;;;;;;;;;15.55;100.00;99298.94;5075624;28;19936;-60
2021/09/04 05:54:45;;;;;;;;;;;;;;;15.92;100.00;99296.34;5074811;28;19938;-61
2021/09/04 05:57:10;;;;;;;;;;;;;;;16.24;100.00;99299.97;5076755;28;19916;-60
2021/09/04 05:59:36;;;;;;;;;;;;;;;15.38;100.00;99291.97;5077440;28;19927;-61
2021/09/04 06:02:01;;;;;;;;;;;;;;;15.76;100.00;99304.03;5079026;28;19969;-62
2021/09/04 06:04:26;;;;;;;;;;;;;;;16.49;100.00;99292.59;5079756;28;20428;-61
2021/09/04 06:06:51;;;;;;;;;;;;;;;16.50;100.00;99289.06;5096572;28;19924;-61
2021/09/04 06:09:17;;;;;;;;;;;;;;;16.18;100.00;99293.31;5079019;28;19999;-60
2021/09/04 06:11:42;;;;;;;;;;;;;;;16.51;100.00;99290.75;5096462;28;19919;-62
2021/09/04 06:14:09;;;;;;;;;;;;;;;15.95;100.00;99293.63;5099260;28;20433;-62
2021/09/04 06:16:34;;;;;;;;;;;;;;;15.14;100.00;99299.13;5096982;28;20299;-61
2021/09/04 06:19:00;;;;;;;;;;;;;;;15.82;100.00;99296.78;5097014;28;19912;-61
2021/09/04 06:21:25;;;;;;;;;;;;;;;15.44;100.00;99296.00;5077147;28;19919;-61
2021/09/04 06:23:50;;;;;;;;;;;;;;;15.75;100.00;99305.81;5097787;28;20373;-61
2021/09/04 06:26:16;;;;;;;;;;;;;;;15.78;100.00;99303.09;5075341;28;20010;-60
2021/09/04 06:28:41;;;;;;;;;;;;;;;15.95;100.00;99311.81;5097421;28;19946;-61
2021/09/04 06:31:07;;;;;;;;;;;;;;;16.67;100.00;99311.59;5099005;28;21004;-60
2021/09/04 06:33:32;;;;;;;;;;;;;;;16.46;100.00;99312.69;5098951;28;20365;-61
2021/09/04 06:35:57;;;;;;;;;;;;;;;16.41;100.00;99314.69;5080979;28;20458;-61
2021/09/04 06:38:23;;;;;;;;;;;;;;;16.06;100.00;99314.72;5098493;28;19916;-60
2021/09/04 06:40:48;;;;;;;;;;;;;;;16.44;100.00;99309.31;5097891;28;19947;-62
2021/09/04 06:43:14;;;;;;;;;;;;;;;16.94;100.00;99313.69;5098076;28;20001;-62
2021/09/04 06:45:39;;;;;;;;;;;;;;;16.95;100.00;99310.19;5104240;28;20007;-60
2021/09/04 06:48:05;;;;;;;;;;;;;;;16.80;100.00;99310.97;5084821;28;19924;-61
2021/09/04 06:50:30;;;;;;;;;;;;;;;17.24;100.00;99310.34;5086327;28;20324;-61
2021/09/04 06:52:55;;;;;;;;;;;;;;;16.78;100.00;99318.81;5064906;28;19922;-62
2021/09/04 06:55:21;;;;;;;;;;;;;;;16.27;100.00;99318.00;5091885;28;19927;-61
2021/09/04 06:57:46;;;;;;;;;;;;;;;15.87;100.00;99320.81;5079741;28;20372;-59
2021/09/04 07:00:12;;;;;;;;;;;;;;;15.57;100.00;99323.06;5103056;28;19915;-61
2021/09/04 07:02:37;;;;;;;;;;;;;;;15.68;100.00;99326.00;5097830;28;20379;-61
2021/09/04 07:05:03;;;;;;;;;;;;;;;15.82;100.00;99327.97;5074343;28;19923;-61
2021/09/04 07:07:28;;;;;;;;;;;;;;;15.55;100.00;99331.84;5078206;28;19920;-60
2021/09/04 07:09:54;;;;;;;;;;;;;;;15.79;100.00;99328.13;5083027;28;20061;-59
2021/09/04 07:12:19;;;;;;;;;;;;;;;16.23;100.00;99326.84;5082934;28;19956;-59
2021/09/04 07:14:47;;;;;;;;;;;;;;;16.69;100.00;99320.16;5079179;28;19961;-60
2021/09/04 07:17:13;;;;;;;;;;;;;;;16.49;100.00;99317.75;5081258;28;20391;-60
2021/09/04 07:19:39;;;;;;;;;;;;;;;15.79;100.00;99325.53;5086890;28;19919;-60
2021/09/04 07:22:04;;;;;;;;;;;;;;;16.60;100.00;99319.78;5086334;28;19924;-61
2021/09/04 07:24:29;;;;;;;;;;;;;;;16.81;100.00;99323.03;5081696;28;19916;-60
2021/09/04 07:26:54;;;;;;;;;;;;;;;16.18;100.00;99324.47;5081917;28;19924;-59
2021/09/04 07:29:20;;;;;;;;;;;;;;;16.04;100.00;99326.94;5067279;28;19920;-60
2021/09/04 07:31:46;;;;;;;;;;;;;;;15.62;100.00;99341.03;5075217;28;19938;-60
2021/09/04 07:34:12;;;;;;;;;;;;;;;15.96;100.00;99335.09;5080518;28;19943;-62
2021/09/04 07:36:37;;;;;;;;;;;;;;;16.45;100.00;99337.03;5080980;28;20629;-61
2021/09/04 07:39:02;;;;;;;;;;;;;;;15.69;100.00;99329.44;5080251;28;19912;-61
2021/09/04 07:41:28;;;;;;;;;;;;;;;16.37;100.00;99339.97;5080923;28;19920;-62
2021/09/04 07:43:53;;;;;;;;;;;;;;;16.23;100.00;99335.47;5085451;28;19942;-60
2021/09/04 07:46:18;;;;;;;;;;;;;;;15.75;100.00;99349.13;5081031;28;19966;-61
2021/09/04 07:48:44;;;;;;;;;;;;;;;15.53;100.00;99344.91;5082341;28;19927;-60
2021/09/04 07:51:09;;;;;;;;;;;;;;;16.19;100.00;99336.53;5078636;28;19920;-61
2021/09/04 07:53:35;;;;;;;;;;;;;;;16.01;100.00;99342.66;5080153;28;19963;-60
2021/09/04 07:56:00;;;;;;;;;;;;;;;16.19;100.00;99341.75;5079648;28;19944;-61
2021/09/04 07:58:26;;;;;;;;;;;;;;;16.87;100.00;99343.53;5081848;28;19954;-61
2021/09/04 08:00:51;;;;;;;;;;;;;;;16.90;100.00;99332.97;5077573;28;19926;-61
2021/09/04 08:03:17;;;;;;;;;;;;;;;16.29;100.00;99342.97;5084315;28;19912;-62
2021/09/04 08:05:42;;;;;;;;;;;;;;;16.33;100.00;99342.81;5087102;28;19924;-62
2021/09/04 08:08:07;;;;;;;;;;;;;;;15.52;100.00;99350.16;5098385;28;19920;-61
2021/09/04 08:10:33;;;;;;;;;;;;;;;16.03;100.00;99351.22;5076815;28;19915;-62
2021/09/04 08:12:58;;;;;;;;;;;;;;;16.17;100.00;99351.41;5088376;28;19919;-61
2021/09/04 08:15:23;;;;;;;;;;;;;;;16.10;100.00;99350.00;5101479;28;19915;-60
2021/09/04 08:17:49;;;;;;;;;;;;;;;16.80;100.00;99350.00;5098780;28;20687;-61
2021/09/04 08:20:14;;;;;;;;;;;;;;;16.24;100.00;99355.38;5095672;28;19935;-61
2021/09/04 08:22:40;;;;;;;;;;;;;;;15.94;100.00;99355.09;5095350;28;19916;-61
2021/09/04 08:25:06;;;;;;;;;;;;;;;15.89;100.00;99365.72;5063711;28;20003;-61
2021/09/04 08:27:31;;;;;;;;;;;;;;;15.84;100.00;99366.84;5096564;28;19926;-60
2021/09/04 08:29:56;;;;;;;;;;;;;;;16.04;100.00;99364.13;5105336;28;19911;-60
2021/09/04 08:32:21;;;;;;;;;;;;;;;16.75;100.00;99360.59;5099328;28;20384;-61
2021/09/04 08:34:47;;;;;;;;;;;;;;;16.06;100.00;99364.91;5081687;28;19924;-61
2021/09/04 08:37:12;;;;;;;;;;;;;;;16.62;100.00;99362.97;5083906;28;20371;-61
2021/09/04 08:39:37;;;;;;;;;;;;;;;16.10;100.00;99363.84;5097835;28;19947;-61
2021/09/04 08:42:06;;;;;;;;;;;;;;;15.93;100.00;99365.56;5101974;28;19963;-60
2021/09/04 08:44:31;;;;;;;;;;;;;;;15.90;100.00;99363.97;5085504;28;20402;-60
2021/09/04 08:46:57;;;;;;;;;;;;;;;16.20;100.00;99373.78;5100108;28;19931;-61
2021/09/04 08:49:22;;;;;;;;;;;;;;;15.91;100.00;99373.44;5082806;28;20012;-62
2021/09/04 08:51:48;;;;;;;;;;;;;;;15.71;100.00;99376.13;5063357;28;20029;-60
2021/09/04 08:54:13;;;;;;;;;;;;;;;16.10;100.00;99370.78;5098936;28;20030;-60
2021/09/04 08:56:39;;;;;;;;;;;;;;;15.93;100.00;99370.78;5065677;28;19924;-61
2021/09/04 08:59:05;;;;;;;;;;;;;;;15.67;100.00;99381.44;5098616;28;20288;-61
2021/09/04 09:01:30;;;;;;;;;;;;;;;15.97;100.00;99377.50;5102081;28;19916;-62
2021/09/04 09:03:57;;;;;;;;;;;;;;;15.24;100.00;99383.41;5102217;28;20245;-61
2021/09/04 09:06:29;;;;;;;;;;;;;;;16.08;100.00;99385.63;5083406;28;19924;-62
2021/09/04 09:08:55;;;;;;;;;;;;;;;17.08;100.00;99373.66;5102148;28;20418;-61
2021/09/04 09:11:21;;;;;;;;;;;;;;;16.65;100.00;99375.84;5099162;28;19922;-62
2021/09/04 09:13:55;;;;;;;;;;;;;;;15.91;100.00;99380.41;5103147;28;20011;-60
2021/09/04 09:16:22;;;;;;;;;;;;;;;15.96;100.00;99384.44;5083707;28;19916;-63
2021/09/04 09:18:55;;;;;;;;;;;;;;;16.37;100.00;99380.75;5100762;28;19916;-62
2021/09/04 09:21:20;;;;;;;;;;;;;;;15.82;100.00;99387.69;5083273;28;20008;-60
2021/09/04 09:23:46;;;;;;;;;;;;;;;17.17;100.00;99371.47;5079557;28;20425;-61
2021/09/04 09:26:11;;;;;;;;;;;;;;;17.06;100.00;99365.09;5081400;28;19912;-61
2021/09/04 09:28:37;;;;;;;;;;;;;;;16.42;100.00;99368.34;5093073;28;19919;-61
2021/09/04 09:31:03;;;;;;;;;;;;;;;16.23;100.00;99376.22;5095551;28;20002;-62
2021/09/04 09:33:28;;;;;;;;;;;;;;;16.99;100.00;99374.16;5096995;28;19916;-63
2021/09/04 09:35:55;;;;;;;;;;;;;;;16.80;100.00;99371.63;5096072;28;19945;-62
2021/09/04 09:38:21;;;;;;;;;;;;;;;17.46;100.00;99373.34;5097639;28;19922;-61
2021/09/04 09:40:46;;;;;;;;;;;;;;;16.80;100.00;99370.81;5096504;28;19916;-62
2021/09/04 09:43:24;;;;;;;;;;;;;;;16.36;100.00;99376.47;5095528;28;19916;-62
2021/09/04 09:45:50;;;;;;;;;;;;;;;16.36;100.00;99379.91;5093571;28;20022;-62
2021/09/04 09:48:17;;;;;;;;;;;;;;;16.38;100.00;99372.03;5075611;28;20365;-64
2021/09/04 09:50:42;;;;;;;;;;;;;;;15.97;100.00;99367.13;5058188;28;19915;-62
2021/09/04 09:53:07;;;;;;;;;;;;;;;16.15;100.00;99371.41;5070412;28;19922;-62
2021/09/04 09:55:33;;;;;;;;;;;;;;;16.04;100.00;99376.28;5090596;28;19918;-62
2021/09/04 09:57:58;;;;;;;;;;;;;;;16.18;100.00;99376.44;5072653;28;20305;-62
2021/09/04 10:00:27;;;;;;;;;;;;;;;16.68;100.00;99372.25;5090035;28;19924;-62
2021/09/04 10:03:00;;;;;;;;;;;;;;;16.76;100.00;99374.44;5093330;28;19919;-62
2021/09/04 10:05:26;;;;;;;;;;;;;;;16.90;100.00;99366.78;5092824;28;19932;-61
2021/09/04 10:07:53;;;;;;;;;;;;;;;16.92;100.00;99373.63;5078508;28;19920;-62
2021/09/04 10:10:19;;;;;;;;;;;;;;;17.75;100.00;99379.56;5095468;28;19916;-61
2021/09/04 10:12:44;;;;;;;;;;;;;;;16.42;100.00;99383.94;5094143;28;19920;-63
2021/09/04 10:15:10;;;;;;;;;;;;;;;17.51;100.00;99376.53;5096039;28;20381;-62
2021/09/04 10:17:35;;;;;;;;;;;;;;;16.84;100.00;99380.13;5096838;28;19923;-62
2021/09/04 10:20:00;;;;;;;;;;;;;;;16.98;100.00;99375.03;5094931;28;19916;-62
2021/09/04 10:22:26;;;;;;;;;;;;;;;17.08;100.00;99375.41;5093956;28;19931;-62
2021/09/04 10:24:53;;;;;;;;;;;;;;;17.04;100.00;99374.72;5093277;28;20335;-62
2021/09/04 10:27:35;;;;;;;;;;;;;;;17.41;100.00;99370.16;5094941;28;19980;-62
2021/09/04 10:30:19;;;;;;;;;;;;;;;17.33;100.00;99359.31;5078946;28;19930;-63
2021/09/04 10:33:07;;;;;;;;;;;;;;;16.35;100.00;99361.78;5096934;28;19924;-61
2021/09/04 10:35:52;;;;;;;;;;;;;;;16.71;100.00;99365.09;5081061;28;19965;-68
2021/09/04 10:38:17;;;;;;;;;;;;;;;16.78;100.00;99370.84;5095659;28;19920;-60
2021/09/04 10:40:42;;;;;;;;;;;;;;;16.46;100.00;99375.91;5098860;28;19930;-63
2021/09/04 10:43:08;;;;;;;;;;;;;;;16.81;100.00;99372.47;5099679;28;20588;-62
2021/09/04 10:45:34;;;;;;;;;;;;;;;17.03;100.00;99369.59;5088556;28;19912;-61
2021/09/04 10:47:59;;;;;;;;;;;;;;;17.06;100.00;99365.09;5070076;28;19924;-59
2021/09/04 10:50:27;;;;;;;;;;;;;;;16.89;100.00;99357.31;5102476;28;19996;-61
2021/09/04 10:52:56;;;;;;;;;;;;;;;16.99;100.00;99355.94;5068591;28;19919;-59
2021/09/04 10:55:29;;;;;;;;;;;;;;;17.54;100.00;99360.75;5086239;28;20584;-62
2021/09/04 10:58:08;;;;;;;;;;;;;;;17.64;100.00;99349.84;5070266;28;20403;-61
2021/09/04 11:00:43;;;;;;;;;;;;;;;16.66;100.00;99356.72;5083999;28;19920;-60
2021/09/04 11:03:11;;;;;;;;;;;;;;;17.64;100.00;99362.84;5100739;28;19916;-61
2021/09/04 11:05:38;;;;;;;;;;;;;;;17.93;100.00;99351.69;5079459;28;20297;-61
2021/09/04 11:08:13;;;;;;;;;;;;;;;17.06;100.00;99365.09;5080446;28;20420;-62
2021/09/04 11:10:40;;;;;;;;;;;;;;;17.00;100.00;99365.41;5101236;28;19915;-61
2021/09/04 11:13:14;;;;;;;;;;;;;;;16.98;100.00;99371.59;5104399;28;19951;-62
2021/09/04 11:15:39;;;;;;;;;;;;;;;16.83;100.00;99365.44;5100653;28;20433;-61
2021/09/04 11:18:05;;;;;;;;;;;;;;;17.01;100.00;99367.06;5098524;28;19912;-61
2021/09/04 11:20:30;;;;;;;;;;;;;;;18.41;100.00;99351.53;5080944;28;21208;-61
2021/09/04 11:22:56;;;;;;;;;;;;;;;16.85;100.00;99350.59;5080606;28;19916;-59
2021/09/04 11:25:21;;;;;;;;;;;;;;;17.40;100.00;99347.63;5105291;28;20652;-60
2021/09/04 11:27:56;;;;;;;;;;;;;;;17.43;100.00;99350.09;5101685;28;19932;-59
2021/09/04 11:30:21;;;;;;;;;;;;;;;17.84;100.00;99341.78;5078659;28;20199;-61
2021/09/04 11:32:47;;;;;;;;;;;;;;;17.11;100.00;99357.88;5081301;28;19919;-61
2021/09/04 11:35:12;;;;;;;;;;;;;;;16.93;100.00;99348.44;5068959;28;20030;-62
2021/09/04 11:37:41;;;;;;;;;;;;;;;17.42;100.00;99352.78;5064501;28;19956;-61
2021/09/04 11:40:08;;;;;;;;;;;;;;;17.33;100.00;99351.50;5085600;28;19928;-61
2021/09/04 11:42:40;;;;;;;;;;;;;;;17.47;100.00;99354.22;5066614;28;19912;-62
2021/09/04 11:45:08;;;;;;;;;;;;;;;18.01;100.00;99345.19;5097525;28;19926;-62
2021/09/04 11:47:34;;;;;;;;;;;;;;;18.12;100.00;99337.59;5087980;28;19959;-61
2021/09/04 11:50:01;;;;;;;;;;;;;;;17.28;100.00;99348.31;5088995;28;19926;-62
2021/09/04 11:52:32;;;;;;;;;;;;;;;17.68;100.00;99343.53;5082661;28;19957;-63
2021/09/04 11:55:19;;;;;;;;;;;;;;;18.69;100.00;99335.09;5104394;28;19927;-62
2021/09/04 11:57:45;;;;;;;;;;;;;;;17.64;100.00;99339.41;5100676;28;19923;-62
2021/09/04 12:00:12;;;;;;;;;;;;;;;17.62;100.00;99342.09;5080653;28;19919;-62
2021/09/04 13:33:32;;;;;;;;;;;;;;;18.23;100.00;99308.31;5076559;28;20021;-61
2021/09/04 14:10:04;;;;;;;;;;;;;;;21.56;100.00;99286.56;5070512;28;20411;-62
2021/09/04 14:15:39;;;;;;;;;;;;;;;23.64;100.00;99274.03;5073191;28;19938;-61
2021/09/04 14:21:07;;;;;;;;;;;;;;;21.55;100.00;99274.38;5070244;28;20020;-62
2021/09/04 14:23:42;;;;;;;;;;;;;;;22.30;100.00;99267.97;5061672;28;20854;-62
2021/09/04 14:26:07;;;;;;;;;;;;;;;22.87;100.00;99264.41;5055843;28;19923;-62
2021/09/04 14:28:33;;;;;;;;;;;;;;;22.64;100.00;99257.50;5056080;28;19916;-60
2021/09/04 14:30:58;;;;;;;;;;;;;;;24.51;100.00;99254.59;5069705;28;19926;-63
2021/09/04 14:33:23;;;;;;;;;;;;;;;22.49;100.00;99249.03;5058053;28;19971;-63
2021/09/04 14:35:52;;;;;;;;;;;;;;;22.16;100.00;99257.66;5082230;28;19942;-63
2021/09/04 14:38:18;;;;;;;;;;;;;;;22.70;100.00;99257.03;5064354;28;19920;-62
2021/09/04 14:40:46;;;;;;;;;;;;;;;22.77;100.00;99255.59;5056298;28;19943;-62